Time;durP1;ratioP1;P1;durP2;ratioP2;P2;SDS_P1;SDS_P2;PMS_P1;PMS_P2;Temp;Humidity;BMP_temperature;BMP_pressure;BME280_temperature;BME280_humidity;BME280_pressure;Samples;Min_cycle;Max_cycle;Signal;HPM_P1;HPM_P2
2023/04/04 00:00:23;;;;;;;13.73;7.90;;;;;;;1.35;70.87;100753.75;5053763;28;20048;-77
2023/04/04 00:02:48;;;;;;;17.02;7.90;;;;;;;1.16;70.70;100714.22;5053538;28;20392;-77
2023/04/04 00:05:14;;;;;;;14.52;7.90;;;;;;;1.09;71.07;100745.78;5053587;28;20098;-77
2023/04/04 00:07:39;;;;;;;13.93;7.57;;;;;;;1.00;71.95;100745.69;5053268;28;20047;-77
2023/04/04 00:10:05;;;;;;;16.77;7.68;;;;;;;0.69;72.45;100691.56;5053974;28;20025;-77
2023/04/04 00:12:31;;;;;;;16.65;7.93;;;;;;;0.92;72.92;100719.97;5053450;28;20033;-77
2023/04/04 00:14:56;;;;;;;14.57;8.18;;;;;;;0.91;72.44;100725.09;5053219;28;20029;-77
2023/04/04 00:17:21;;;;;;;11.93;7.32;;;;;;;0.88;72.72;100712.22;5053237;28;20055;-77
2023/04/04 00:19:47;;;;;;;14.73;7.60;;;;;;;0.77;72.84;100707.00;5053050;28;20055;-77
2023/04/04 00:22:15;;;;;;;12.85;7.88;;;;;;;0.86;73.21;100725.06;5053251;28;20028;-77
2023/04/04 00:24:40;;;;;;;12.88;7.18;;;;;;;0.75;73.12;100683.03;5052865;28;20468;-77
2023/04/04 00:27:05;;;;;;;16.35;7.85;;;;;;;0.96;73.10;100720.88;5053047;28;20056;-77
2023/04/04 00:29:33;;;;;;;14.68;7.07;;;;;;;1.06;72.96;100724.41;5053016;28;20024;-77
2023/04/04 00:31:58;;;;;;;12.90;7.88;;;;;;;0.68;72.71;100664.19;5052812;28;20516;-77
2023/04/04 00:34:24;;;;;;;14.80;7.50;;;;;;;0.63;73.91;100698.31;5052587;28;20113;-77
2023/04/04 00:36:49;;;;;;;14.00;6.65;;;;;;;0.63;73.80;100665.88;5051935;28;20064;-77
2023/04/04 00:39:15;;;;;;;14.27;8.70;;;;;;;0.86;73.96;100708.81;5053138;28;20112;-77
2023/04/04 00:41:40;;;;;;;13.32;7.47;;;;;;;0.78;73.57;100687.34;5052728;28;20108;-78
2023/04/04 00:44:06;;;;;;;14.90;7.43;;;;;;;0.88;73.64;100702.84;5052808;28;20493;-77
2023/04/04 00:46:31;;;;;;;14.85;7.68;;;;;;;0.79;73.38;100689.06;5052672;28;20051;-77
2023/04/04 00:48:58;;;;;;;16.38;8.02;;;;;;;0.80;73.11;100680.53;5052737;28;20104;-78
2023/04/04 00:51:23;;;;;;;13.40;6.30;;;;;;;0.88;73.07;100674.63;5052580;28;20029;-78
2023/04/04 00:53:50;;;;;;;14.27;7.05;;;;;;;1.03;73.04;100693.56;5052273;28;20021;-78
2023/04/04 00:56:16;;;;;;;13.85;6.82;;;;;;;1.15;73.14;100706.50;5052435;28;20033;-78
2023/04/04 00:58:42;;;;;;;9.27;5.78;;;;;;;0.89;73.22;100690.91;5052354;28;20021;-78
2023/04/04 01:01:11;;;;;;;9.32;5.60;;;;;;;0.89;73.59;100680.63;5052431;28;20029;-78
2023/04/04 01:03:38;;;;;;;9.40;5.80;;;;;;;1.06;72.93;100693.63;5052665;28;20447;-77
2023/04/04 01:06:04;;;;;;;12.23;5.35;;;;;;;0.83;73.39;100671.16;5052066;28;20082;-77
2023/04/04 01:08:31;;;;;;;10.48;5.15;;;;;;;0.90;73.37;100679.78;5052428;28;20032;-78
2023/04/04 01:10:56;;;;;;;10.02;5.35;;;;;;;0.94;73.49;100687.53;5051829;28;20448;-78
2023/04/04 01:13:22;;;;;;;10.77;5.70;;;;;;;0.97;73.28;100690.13;5052316;28;20108;-78
2023/04/04 01:15:47;;;;;;;9.82;5.50;;;;;;;0.94;73.12;100686.66;5052019;28;20032;-77
2023/04/04 01:18:16;;;;;;;10.02;5.63;;;;;;;0.81;73.51;100685.69;5052607;28;20116;-78
2023/04/04 01:20:51;;;;;;;9.73;5.40;;;;;;;0.60;73.07;100673.50;5052129;28;20029;-77
2023/04/04 01:23:17;;;;;;;13.93;6.32;;;;;;;0.58;73.22;100658.94;5052147;28;20062;-78
2023/04/04 01:25:42;;;;;;;12.68;6.47;;;;;;;0.64;72.99;100651.34;5050752;28;20645;-78
2023/04/04 01:28:08;;;;;;;11.35;6.57;;;;;;;0.57;73.45;100668.34;5051936;28;20488;-78
2023/04/04 01:30:35;;;;;;;10.90;6.63;;;;;;;0.70;73.11;100671.88;5051900;28;20111;-77
2023/04/04 01:33:12;;;;;;;9.30;6.05;;;;;;;0.75;73.71;100653.13;5051623;28;20060;-78
2023/04/04 01:35:42;;;;;;;14.90;6.32;;;;;;;0.81;73.60;100672.88;5052162;28;20025;-77
2023/04/04 01:38:29;;;;;;;12.63;6.75;;;;;;;0.88;73.35;100666.94;5051792;28;20040;-77
2023/04/04 01:41:00;;;;;;;10.18;6.55;;;;;;;0.80;73.73;100660.91;5051784;28;20029;-78
2023/04/04 01:43:25;;;;;;;23.02;10.05;;;;;;;0.49;73.45;100652.03;5051786;28;20033;-78
2023/04/04 01:45:50;;;;;;;20.77;8.98;;;;;;;0.18;74.04;100592.78;5051479;28;20047;-78
2023/04/04 01:48:16;;;;;;;12.23;7.45;;;;;;;0.69;74.27;100653.09;5051723;28;20025;-77
2023/04/04 01:50:41;;;;;;;13.40;7.85;;;;;;;0.82;74.11;100658.34;5051741;28;20102;-78
2023/04/04 01:53:06;;;;;;;14.27;7.57;;;;;;;0.57;73.01;100644.41;5051445;28;20441;-78
2023/04/04 01:55:32;;;;;;;14.85;8.07;;;;;;;0.57;73.81;100639.28;5051707;28;20081;-78
2023/04/04 01:57:57;;;;;;;15.27;7.95;;;;;;;0.33;74.40;100610.00;5051534;28;20025;-77
2023/04/04 02:00:23;;;;;;;13.00;7.28;;;;;;;0.59;73.64;100635.91;5051629;28;20435;-77
2023/04/04 02:02:48;;;;;;;22.48;8.82;;;;;;;0.29;74.62;100640.69;5051588;28;20031;-77
2023/04/04 02:05:13;;;;;;;16.80;8.13;;;;;;;0.28;74.97;100637.28;5051791;28;20025;-78
2023/04/04 02:07:39;;;;;;;14.00;8.07;;;;;;;0.24;75.00;100609.91;5051739;28;20029;-77
2023/04/04 02:10:05;;;;;;;18.73;8.20;;;;;;;0.29;74.91;100623.63;5051472;28;20414;-77
2023/04/04 02:12:30;;;;;;;18.73;8.68;;;;;;;0.29;74.59;100615.06;5051315;28;20108;-78
2023/04/04 02:14:55;;;;;;;14.25;8.15;;;;;;;0.56;74.49;100648.69;5051261;28;20017;-77
2023/04/04 02:17:20;;;;;;;16.75;8.60;;;;;;;0.56;74.45;100650.41;5051684;28;20453;-78
2023/04/04 02:19:46;;;;;;;16.02;8.57;;;;;;;0.11;75.55;100616.59;5051301;28;20064;-78
2023/04/04 02:22:11;;;;;;;16.23;8.50;;;;;;;0.38;75.33;100646.81;5051514;28;20028;-77
2023/04/04 02:24:37;;;;;;;19.90;9.98;;;;;;;0.44;75.52;100646.00;5051400;28;20033;-78
2023/04/04 02:27:03;;;;;;;22.65;9.27;;;;;;;0.59;74.84;100653.84;5051155;28;20056;-78
2023/04/04 02:29:28;;;;;;;18.83;10.38;;;;;;;0.57;74.71;100636.72;5051414;28;20021;-78
2023/04/04 02:31:53;;;;;;;17.10;9.35;;;;;;;0.22;75.39;100611.59;5051694;28;20483;-78
2023/04/04 02:34:19;;;;;;;19.40;10.68;;;;;;;0.43;75.60;100647.72;5051465;28;20033;-78
2023/04/04 02:36:44;;;;;;;19.73;10.00;;;;;;;0.19;76.35;100612.41;5051458;28;20029;-78
2023/04/04 02:39:09;;;;;;;18.30;9.93;;;;;;;0.20;76.12;100616.69;5051153;28;20469;-77
2023/04/04 02:41:35;;;;;;;15.90;9.25;;;;;;;0.19;75.92;100634.63;5051267;28;20036;-77
2023/04/04 02:44:00;;;;;;;20.42;10.30;;;;;;;0.12;76.66;100627.69;5051033;28;20032;-77
2023/04/04 02:46:25;;;;;;;16.00;9.38;;;;;;;0.00;76.64;100600.28;5051443;28;20032;-77
2023/04/04 02:48:51;;;;;;;19.42;9.23;;;;;;;0.03;77.02;100642.97;5050986;28;20028;-77
2023/04/04 02:51:17;;;;;;;15.60;9.10;;;;;;;0.03;77.60;100646.38;5051353;28;20029;-78
2023/04/04 02:53:42;;;;;;;17.60;9.38;;;;;;;0.03;77.16;100645.53;5049882;28;20112;-78
2023/04/04 02:56:07;;;;;;;16.33;9.13;;;;;;;0.07;78.07;100642.16;5051003;28;20035;-77
2023/04/04 02:58:33;;;;;;;17.25;9.25;;;;;;;-0.09;77.77;100633.41;5051678;28;20481;-77
2023/04/04 03:00:59;;;;;;;18.10;9.05;;;;;;;-0.15;78.31;100629.09;5054695;28;20025;-77
2023/04/04 03:03:25;;;;;;;20.98;10.77;;;;;;;-0.07;78.50;100642.84;5054652;28;20108;-77
2023/04/04 03:05:50;;;;;;;20.40;10.27;;;;;;;-0.17;78.81;100642.72;5054582;28;20071;-77
2023/04/04 03:08:16;;;;;;;24.15;12.50;;;;;;;-0.15;79.77;100644.47;5054587;28;20021;-77
2023/04/04 03:10:43;;;;;;;23.50;10.50;;;;;;;-0.16;79.62;100644.44;5054370;28;20025;-77
2023/04/04 03:13:08;;;;;;;17.23;10.10;;;;;;;-0.19;79.19;100634.16;5054402;28;20386;-78
2023/04/04 03:15:34;;;;;;;17.45;9.55;;;;;;;-0.14;79.11;100632.50;5054654;28;20021;-78
2023/04/04 03:17:59;;;;;;;16.30;8.88;;;;;;;-0.03;79.34;100651.44;5054275;28;20029;-77
2023/04/04 03:20:25;;;;;;;14.40;9.05;;;;;;;-0.13;79.31;100629.09;5053190;28;20071;-77
2023/04/04 03:22:50;;;;;;;18.25;10.20;;;;;;;-0.08;79.48;100640.28;5054108;28;20085;-78
2023/04/04 03:25:16;;;;;;;17.58;9.05;;;;;;;-0.08;79.49;100641.16;5054222;28;20029;-77
2023/04/04 03:27:41;;;;;;;15.93;8.80;;;;;;;-0.23;79.51;100630.69;5052751;28;20044;-77
2023/04/04 03:30:07;;;;;;;17.20;9.20;;;;;;;-0.26;79.46;100625.53;5054122;28;20469;-78
2023/04/04 03:32:33;;;;;;;18.40;9.65;;;;;;;-0.13;79.29;100653.00;5054019;28;20036;-78
2023/04/04 03:34:58;;;;;;;15.45;8.30;;;;;;;-0.22;79.27;100652.88;5054047;28;20032;-78
2023/04/04 03:37:23;;;;;;;18.88;9.23;;;;;;;-0.42;80.03;100624.50;5054353;28;20025;-77
2023/04/04 03:39:49;;;;;;;16.75;9.38;;;;;;;-0.29;80.25;100644.28;5053985;28;20106;-77
2023/04/04 03:42:14;;;;;;;18.55;9.13;;;;;;;-0.39;80.12;100627.06;5053818;28;20461;-77
2023/04/04 03:44:40;;;;;;;16.23;9.05;;;;;;;-0.43;80.70;100650.03;5053937;28;20025;-78
2023/04/04 03:47:06;;;;;;;16.73;9.90;;;;;;;-0.36;80.53;100656.97;5053963;28;20036;-77
2023/04/04 03:49:32;;;;;;;20.30;10.20;;;;;;;-0.59;80.96;100624.25;5053803;28;20025;-77
2023/04/04 03:51:57;;;;;;;17.83;10.07;;;;;;;-0.42;80.66;100639.84;5052420;28;20021;-78
2023/04/04 03:54:23;;;;;;;22.85;12.38;;;;;;;-0.40;80.76;100640.72;5053579;28;20071;-78
2023/04/04 03:56:48;;;;;;;17.75;9.73;;;;;;;-0.67;80.33;100595.16;5053642;28;20033;-77
2023/04/04 03:59:13;;;;;;;16.20;8.82;;;;;;;-0.69;80.64;100619.81;5053636;28;20373;-78
2023/04/04 04:01:39;;;;;;;17.42;8.20;;;;;;;-0.45;80.66;100633.81;5054108;28;20400;-77
2023/04/04 04:04:05;;;;;;;13.80;8.23;;;;;;;-0.27;80.53;100652.84;5053488;28;20029;-78
2023/04/04 04:06:30;;;;;;;14.32;7.72;;;;;;;-0.79;80.04;100629.06;5053690;28;20087;-77
2023/04/04 04:08:57;;;;;;;13.73;8.52;;;;;;;-0.68;80.14;100630.91;5053250;28;20632;-77
2023/04/04 04:11:22;;;;;;;17.70;9.02;;;;;;;-0.56;80.00;100647.31;5053095;28;20029;-77
2023/04/04 04:13:47;;;;;;;14.05;8.05;;;;;;;-0.47;79.63;100638.91;5051964;28;20378;-77
2023/04/04 04:16:13;;;;;;;14.00;8.05;;;;;;;-0.37;79.34;100655.25;5053181;28;20029;-77
2023/04/04 04:18:39;;;;;;;11.85;8.65;;;;;;;-0.33;79.24;100657.03;5053454;28;20515;-77
2023/04/04 04:21:04;;;;;;;17.10;8.45;;;;;;;-0.58;79.24;100651.56;5053139;28;20021;-78
2023/04/04 04:23:30;;;;;;;17.63;7.88;;;;;;;-0.44;79.24;100656.88;5053220;28;20028;-78
2023/04/04 04:25:55;;;;;;;15.15;7.65;;;;;;;-0.49;79.01;100655.09;5052876;28;20500;-76
2023/04/04 04:28:22;;;;;;;16.20;9.20;;;;;;;-0.56;78.96;100620.88;5053236;28;20056;-77
2023/04/04 04:30:47;;;;;;;19.40;10.82;;;;;;;-0.30;78.82;100654.50;5053065;28;20025;-78
2023/04/04 04:33:12;;;;;;;16.85;9.77;;;;;;;-0.45;78.76;100656.84;5052640;28;20032;-78
2023/04/04 04:35:41;;;;;;;19.38;10.30;;;;;;;-0.55;78.49;100631.13;5052982;28;20100;-78
2023/04/04 04:38:06;;;;;;;18.17;9.77;;;;;;;-0.41;78.39;100656.91;5052921;28;20025;-78
2023/04/04 04:40:32;;;;;;;20.90;10.82;;;;;;;-0.29;78.86;100659.66;5052740;28;20036;-78
2023/04/04 04:42:58;;;;;;;15.88;9.18;;;;;;;-0.29;78.11;100657.09;5052732;28;20032;-77
2023/04/04 04:45:23;;;;;;;17.67;9.02;;;;;;;-0.33;78.12;100629.72;5052706;28;20104;-78
2023/04/04 04:47:49;;;;;;;18.90;9.63;;;;;;;-0.24;77.83;100636.66;5052641;28;20124;-78
2023/04/04 04:50:15;;;;;;;15.93;7.93;;;;;;;-0.28;77.24;100629.78;5052497;28;20118;-78
2023/04/04 04:52:40;;;;;;;17.25;8.43;;;;;;;-0.28;77.83;100620.41;5052840;28;20464;-77
2023/04/04 04:55:06;;;;;;;20.33;9.27;;;;;;;-0.23;77.70;100615.34;5052474;28;20021;-78
2023/04/04 04:57:35;;;;;;;15.27;8.35;;;;;;;-0.29;77.21;100626.38;5052614;28;20033;-78
2023/04/04 05:00:01;;;;;;;17.65;9.85;;;;;;;-0.08;77.36;100656.50;5051122;28;20036;-78
2023/04/04 05:02:26;;;;;;;16.85;9.23;;;;;;;-0.07;77.03;100645.41;5052568;28;20025;-78
2023/04/04 05:04:52;;;;;;;16.23;9.18;;;;;;;-0.09;77.04;100659.88;5052458;28;20376;-78
2023/04/04 05:07:17;;;;;;;14.73;8.63;;;;;;;-0.15;76.63;100631.66;5052079;28;20083;-77
2023/04/04 05:09:43;;;;;;;13.05;7.50;;;;;;;0.13;76.72;100655.06;5052126;28;20028;-77
2023/04/04 05:12:08;;;;;;;21.25;8.18;;;;;;;-0.03;76.68;100621.56;5050088;28;20052;-77
2023/04/04 05:14:33;;;;;;;16.35;10.98;;;;;;;-0.08;76.29;100640.28;5052069;28;20063;-77
2023/04/04 05:16:58;;;;;;;34.35;15.43;;;;;;;0.12;75.78;100656.72;5052128;28;20116;-77
2023/04/04 05:19:24;;;;;;;25.63;12.82;;;;;;;-0.05;75.14;100666.78;5052031;28;20025;-77
2023/04/04 05:21:49;;;;;;;34.72;17.75;;;;;;;-0.03;75.63;100667.66;5051243;28;20055;-77
2023/04/04 05:24:16;;;;;;;41.13;18.08;;;;;;;0.04;75.05;100632.72;5051183;28;20032;-77
2023/04/04 05:26:41;;;;;;;24.08;12.38;;;;;;;0.17;75.26;100652.56;5051815;28;20029;-78
2023/04/04 05:29:06;;;;;;;24.63;11.65;;;;;;;-0.14;74.57;100642.75;5051818;28;20099;-77
2023/04/04 05:31:32;;;;;;;40.70;21.73;;;;;;;-0.07;74.49;100655.66;5052033;28;20032;-77
2023/04/04 05:33:58;;;;;;;108.10;51.35;;;;;;;-0.30;74.77;100657.91;5051660;28;20053;-77
2023/04/04 05:36:23;;;;;;;118.00;55.40;;;;;;;-0.29;74.62;100653.66;5051937;28;20518;-77
2023/04/04 05:38:48;;;;;;;67.63;31.38;;;;;;;0.08;74.45;100659.25;5052114;28;20465;-77
2023/04/04 05:41:14;;;;;;;67.88;33.70;;;;;;;0.26;74.03;100676.56;5051315;28;20477;-78
2023/04/04 05:43:39;;;;;;;26.90;14.02;;;;;;;0.32;73.83;100633.91;5052079;28;20459;-78
2023/04/04 05:46:05;;;;;;;15.50;7.28;;;;;;;0.51;72.49;100663.16;5051461;28;20027;-77
2023/04/04 05:48:30;;;;;;;35.70;13.80;;;;;;;0.24;71.60;100656.88;5051911;28;20031;-77
2023/04/04 05:50:55;;;;;;;30.77;14.18;;;;;;;0.39;71.50;100658.75;5051873;28;20043;-77
2023/04/04 05:53:21;;;;;;;51.70;20.25;;;;;;;0.41;70.71;100667.31;5051659;28;20112;-77
2023/04/04 05:55:50;;;;;;;56.80;20.02;;;;;;;0.51;71.05;100658.03;5051630;28;20462;-77
2023/04/04 05:58:15;;;;;;;55.63;21.50;;;;;;;0.37;70.37;100642.50;5051722;28;20116;-78
2023/04/04 06:00:41;;;;;;;45.70;16.45;;;;;;;0.47;71.04;100641.78;5051789;28;20707;-77
2023/04/04 06:03:06;;;;;;;30.10;11.95;;;;;;;0.69;69.69;100663.34;5051545;28;20029;-77
2023/04/04 06:05:32;;;;;;;49.05;17.50;;;;;;;0.80;69.95;100668.59;5051643;28;20400;-77
2023/04/04 06:07:57;;;;;;;39.55;15.10;;;;;;;0.55;69.67;100651.22;5051666;28;20063;-77
2023/04/04 06:10:22;;;;;;;30.27;13.63;;;;;;;0.65;69.59;100638.53;5051400;28;20385;-77
2023/04/04 06:12:47;;;;;;;46.33;17.65;;;;;;;0.86;69.00;100668.63;5051758;28;20025;-77
2023/04/04 06:15:13;;;;;;;41.03;14.73;;;;;;;1.09;69.23;100665.41;5051518;28;20457;-77
2023/04/04 06:17:38;;;;;;;46.75;14.98;;;;;;;0.92;68.73;100643.03;5051642;28;20032;-77
2023/04/04 06:20:04;;;;;;;35.55;12.63;;;;;;;1.02;68.25;100658.53;5051373;28;20096;-77
2023/04/04 06:22:30;;;;;;;22.77;9.52;;;;;;;0.98;67.98;100634.53;5051422;28;20416;-77
2023/04/04 06:24:56;;;;;;;29.55;11.05;;;;;;;1.17;67.88;100636.38;5051395;28;20479;-78
2023/04/04 06:27:22;;;;;;;70.72;36.45;;;;;;;1.15;67.47;100647.50;5051215;28;20099;-77
2023/04/04 06:29:47;;;;;;;101.88;50.13;;;;;;;1.17;66.95;100645.78;5051448;28;20040;-78
2023/04/04 06:32:13;;;;;;;43.63;19.35;;;;;;;1.40;67.28;100628.00;5051639;28;20033;-78
2023/04/04 06:34:38;;;;;;;66.10;21.42;;;;;;;1.71;66.31;100629.03;5055342;28;20377;-77
2023/04/04 06:37:03;;;;;;;19.67;10.40;;;;;;;1.98;65.83;100659.09;5055048;28;20029;-78
2023/04/04 06:39:30;;;;;;;39.63;15.18;;;;;;;1.92;64.73;100654.81;5055222;28;20389;-78
2023/04/04 06:41:55;;;;;;;27.38;12.63;;;;;;;1.81;65.67;100627.34;5055329;28;20115;-78
2023/04/04 06:44:21;;;;;;;54.45;17.85;;;;;;;1.53;64.58;100654.59;5055020;28;21089;-78
2023/04/04 06:46:47;;;;;;;44.45;15.77;;;;;;;1.59;65.73;100645.22;5055394;28;20114;-78
2023/04/04 06:49:12;;;;;;;37.17;14.25;;;;;;;1.64;65.54;100629.84;5054783;28;20598;-78
2023/04/04 06:51:39;;;;;;;16.00;7.75;;;;;;;1.59;65.57;100624.69;5054932;28;20055;-78
2023/04/04 06:54:05;;;;;;;31.30;13.40;;;;;;;1.24;66.59;100634.72;5054550;28;20027;-78
2023/04/04 06:56:30;;;;;;;29.98;12.10;;;;;;;0.86;65.76;100624.19;5055096;28;20029;-78
2023/04/04 06:58:56;;;;;;;41.53;15.25;;;;;;;0.79;66.50;100655.72;5055186;28;20037;-77
2023/04/04 07:01:21;;;;;;;46.88;20.25;;;;;;;0.62;67.35;100660.69;5054685;28;20514;-77
2023/04/04 07:03:46;;;;;;;17.42;9.02;;;;;;;0.65;67.56;100651.34;5054555;28;20120;-78
2023/04/04 07:06:12;;;;;;;29.48;11.52;;;;;;;0.74;68.15;100661.69;5054479;28;20055;-78
2023/04/04 07:08:37;;;;;;;27.50;9.48;;;;;;;0.83;67.60;100657.47;5054594;28;20080;-78
2023/04/04 07:11:03;;;;;;;26.08;10.45;;;;;;;0.72;66.36;100647.16;5054776;28;20021;-77
2023/04/04 07:13:29;;;;;;;41.50;16.13;;;;;;;0.73;66.84;100659.09;5054677;28;20492;-78
2023/04/04 07:15:54;;;;;;;14.98;7.72;;;;;;;0.59;66.75;100625.66;5054644;28;20055;-78
2023/04/04 07:18:19;;;;;;;52.75;14.88;;;;;;;0.75;66.10;100653.13;5054599;28;20033;-78
2023/04/04 07:20:46;;;;;;;25.35;8.65;;;;;;;0.62;64.32;100635.06;5054569;28;20112;-78
2023/04/04 07:23:11;;;;;;;30.60;9.50;;;;;;;0.70;62.61;100657.38;5054176;28;20460;-77
2023/04/04 07:25:37;;;;;;;42.28;11.75;;;;;;;0.72;64.18;100654.84;5054609;28;20104;-77
2023/04/04 07:28:02;;;;;;;53.25;15.02;;;;;;;0.56;64.95;100615.38;5054403;28;20128;-77
2023/04/04 07:30:31;;;;;;;29.63;10.25;;;;;;;0.73;64.07;100630.91;5054112;28;20053;-80
2023/04/04 07:32:57;;;;;;;51.53;14.60;;;;;;;0.82;62.33;100655.78;5054238;28;20081;-77
2023/04/04 07:35:23;;;;;;;58.10;14.98;;;;;;;0.64;62.77;100629.13;5054019;28;20021;-77
2023/04/04 07:37:49;;;;;;;46.45;13.93;;;;;;;0.83;62.39;100662.63;5053978;28;20545;-79
2023/04/04 07:40:15;;;;;;;28.90;10.80;;;;;;;0.61;62.53;100626.50;5054121;28;20104;-77
2023/04/04 07:42:50;;;;;;;45.22;12.50;;;;;;;0.91;62.88;100655.84;5054510;28;20117;-77
2023/04/04 07:45:16;;;;;;;47.55;13.60;;;;;;;1.03;62.35;100653.38;5053013;28;20541;-77
2023/04/04 07:47:43;;;;;;;27.80;10.55;;;;;;;1.11;61.62;100659.44;5053965;28;20036;-76
2023/04/04 07:50:09;;;;;;;24.10;8.02;;;;;;;1.06;61.16;100656.00;5053491;28;20021;-77
2023/04/04 07:52:34;;;;;;;54.13;15.13;;;;;;;0.92;62.61;100619.09;5053751;28;20029;-77
2023/04/04 07:55:02;;;;;;;23.83;8.18;;;;;;;1.17;60.82;100661.19;5053714;28;20036;-79
2023/04/04 07:57:27;;;;;;;9.35;4.32;;;;;;;1.38;60.80;100653.63;5053540;28;20499;-77
2023/04/04 07:59:52;;;;;;;13.18;4.40;;;;;;;1.71;59.03;100647.84;5053654;28;20017;-77
2023/04/04 08:02:18;;;;;;;23.83;7.80;;;;;;;1.34;58.53;100610.84;5053373;28;20591;-77
2023/04/04 08:04:43;;;;;;;18.73;8.13;;;;;;;1.30;60.00;100649.31;5052075;28;20035;-77
2023/04/04 08:07:08;;;;;;;17.70;7.75;;;;;;;1.05;60.51;100638.84;5053583;28;20036;-76
2023/04/04 08:09:35;;;;;;;16.88;5.88;;;;;;;1.04;59.62;100655.09;5053755;28;20112;-77
2023/04/04 08:12:01;;;;;;;46.35;13.90;;;;;;;1.00;59.02;100648.22;5053543;28;20465;-77
2023/04/04 08:14:27;;;;;;;13.23;6.40;;;;;;;1.07;60.11;100647.44;5053077;28;20031;-76
2023/04/04 08:16:52;;;;;;;8.05;4.53;;;;;;;1.02;59.40;100651.69;5053343;28;20095;-77
2023/04/04 08:19:18;;;;;;;18.17;6.32;;;;;;;0.93;60.37;100644.78;5052877;28;20392;-79
2023/04/04 08:21:44;;;;;;;23.42;8.70;;;;;;;0.92;60.97;100652.44;5053236;28;20473;-77
2023/04/04 08:24:11;;;;;;;9.18;4.55;;;;;;;0.88;60.31;100651.53;5053093;28;20087;-77
2023/04/04 08:26:36;;;;;;;24.30;7.60;;;;;;;0.55;61.50;100608.53;5053200;28;20017;-77
2023/04/04 08:29:02;;;;;;;22.35;7.55;;;;;;;0.45;61.07;100581.94;5052764;28;20485;-77
2023/04/04 08:31:28;;;;;;;13.48;6.07;;;;;;;0.80;62.02;100636.94;5052201;28;20039;-79
2023/04/04 08:33:54;;;;;;;22.88;7.72;;;;;;;0.84;61.76;100642.09;5052833;28;20071;-77
2023/04/04 08:36:20;;;;;;;24.13;12.63;;;;;;;0.79;62.63;100640.34;5052476;28;20115;-79
2023/04/04 08:38:45;;;;;;;50.35;20.70;;;;;;;0.83;62.38;100640.38;5053182;28;20112;-77
2023/04/04 08:41:12;;;;;;;167.20;57.90;;;;;;;0.82;63.70;100633.53;5052816;28;20497;-77
2023/04/04 08:43:40;;;;;;;104.60;27.98;;;;;;;0.82;62.40;100613.03;5052875;28;20059;-77
2023/04/04 08:46:07;;;;;;;67.40;23.15;;;;;;;0.98;62.25;100627.69;5052828;28;20036;-77
2023/04/04 08:48:34;;;;;;;13.65;5.53;;;;;;;0.98;61.42;100619.16;5052582;28;20510;-77
2023/04/04 08:51:02;;;;;;;24.77;8.40;;;;;;;0.89;61.77;100613.94;5052871;28;20060;-77
2023/04/04 08:53:28;;;;;;;8.23;4.60;;;;;;;1.02;62.26;100617.47;5052402;28;20484;-77
2023/04/04 08:55:54;;;;;;;44.25;14.95;;;;;;;0.99;61.80;100626.00;5048909;28;20484;-77
2023/04/04 08:58:20;;;;;;;42.15;14.05;;;;;;;0.99;62.18;100633.69;5052239;28;20053;-77
2023/04/04 09:00:45;;;;;;;20.05;6.93;;;;;;;0.86;63.27;100612.22;5052555;28;20037;-77
2023/04/04 09:03:22;;;;;;;23.10;9.15;;;;;;;0.97;62.63;100631.13;5052141;28;20507;-79
2023/04/04 09:05:48;;;;;;;23.35;8.05;;;;;;;0.98;60.92;100619.16;5052285;28;20025;-77
2023/04/04 09:08:17;;;;;;;8.63;4.38;;;;;;;1.21;62.42;100624.44;5052039;28;20029;-78
2023/04/04 09:10:44;;;;;;;21.63;8.23;;;;;;;1.49;62.17;100618.63;5051126;28;20361;-78
2023/04/04 09:13:10;;;;;;;14.10;5.45;;;;;;;1.47;61.41;100602.34;5051040;28;20083;-78
2023/04/04 09:15:37;;;;;;;14.43;7.07;;;;;;;1.54;61.06;100618.66;5065541;28;20127;-78
2023/04/04 09:18:03;;;;;;;5.72;3.15;;;;;;;1.46;60.06;100610.06;5069847;28;20036;-79
2023/04/04 09:20:39;;;;;;;5.05;3.00;;;;;;;1.35;60.29;100598.84;5069541;28;20032;-78
2023/04/04 09:23:10;;;;;;;7.85;3.55;;;;;;;1.60;60.40;100631.56;5070141;28;20050;-79
2023/04/04 09:25:36;;;;;;;9.02;4.43;;;;;;;1.61;59.08;100615.28;5069473;28;20028;-79
2023/04/04 09:28:04;;;;;;;12.63;5.93;;;;;;;1.69;59.28;100628.19;5069428;28;20045;-79
2023/04/04 09:30:34;;;;;;;12.40;5.25;;;;;;;1.36;59.48;100577.50;5069533;28;20139;-79
2023/04/04 09:33:11;;;;;;;20.67;7.20;;;;;;;1.55;59.47;100627.22;5069693;28;20504;-78
2023/04/04 09:35:38;;;;;;;12.48;5.70;;;;;;;1.34;60.16;100605.69;5069552;28;20056;-78
2023/04/04 09:38:07;;;;;;;9.73;6.47;;;;;;;1.39;60.70;100601.47;5069530;28;20067;-79
2023/04/04 09:40:36;;;;;;;9.02;4.03;;;;;;;1.66;60.43;100625.59;5069689;28;20102;-79
2023/04/04 09:43:05;;;;;;;16.80;6.28;;;;;;;1.48;59.87;100598.97;5069643;28;20032;-79
2023/04/04 09:45:33;;;;;;;14.43;5.63;;;;;;;1.53;59.71;100610.97;5069319;28;20036;-79
2023/04/04 09:47:59;;;;;;;25.33;9.65;;;;;;;1.54;61.09;100600.69;5069408;28;20037;-79
2023/04/04 09:50:27;;;;;;;11.32;5.57;;;;;;;1.49;59.82;100598.09;5069343;28;20554;-78
2023/04/04 09:52:56;;;;;;;22.48;11.15;;;;;;;1.67;60.15;100625.56;5061682;28;20043;-78
2023/04/04 09:55:31;;;;;;;21.02;9.20;;;;;;;1.69;59.82;100597.34;5051502;28;20021;-78
2023/04/04 09:57:56;;;;;;;13.27;5.53;;;;;;;1.79;58.56;100636.78;5052044;28;20029;-78
2023/04/04 10:00:22;;;;;;;7.68;3.65;;;;;;;1.67;58.61;100619.59;5051734;28;20036;-78
2023/04/04 10:02:48;;;;;;;9.15;4.97;;;;;;;1.81;59.59;100633.34;5051699;28;20032;-79
2023/04/04 10:05:15;;;;;;;9.25;4.82;;;;;;;1.65;58.65;100586.22;5050435;28;20021;-79
2023/04/04 10:07:42;;;;;;;8.98;5.10;;;;;;;1.90;60.13;100610.28;5052675;28;20060;-78
2023/04/04 10:10:09;;;;;;;12.50;5.47;;;;;;;1.87;59.21;100594.84;5055762;28;20105;-78
2023/04/04 10:12:37;;;;;;;50.92;21.45;;;;;;;1.80;58.71;100580.25;5055613;28;20068;-78
2023/04/04 10:15:03;;;;;;;16.52;6.55;;;;;;;1.94;58.33;100606.03;5055753;28;20036;-78
2023/04/04 10:17:36;;;;;;;12.27;6.47;;;;;;;1.93;58.29;100594.88;5055235;28;20033;-78
2023/04/04 10:20:05;;;;;;;25.08;12.10;;;;;;;1.79;58.68;100570.84;5055707;28;20491;-78
2023/04/04 10:22:35;;;;;;;213.15;74.97;;;;;;;1.82;58.25;100588.00;5055502;28;20464;-78
2023/04/04 10:25:00;;;;;;;91.03;29.00;;;;;;;1.75;58.72;100587.94;5055601;28;20057;-78
2023/04/04 10:27:26;;;;;;;22.33;7.97;;;;;;;1.62;59.33;100578.47;5055130;28;20084;-78
2023/04/04 10:29:51;;;;;;;25.75;8.90;;;;;;;1.57;60.06;100569.06;5055588;28;20468;-78
2023/04/04 10:32:31;;;;;;;32.95;10.15;;;;;;;1.80;60.13;100605.94;5055146;28;20534;-78
2023/04/04 10:35:01;;;;;;;24.63;9.30;;;;;;;1.80;60.10;100587.97;5055165;28;20028;-78
2023/04/04 10:37:33;;;;;;;12.88;7.18;;;;;;;1.86;60.52;100593.16;5055241;28;20024;-78
2023/04/04 10:40:34;;;;;;;25.02;8.88;;;;;;;2.13;61.26;100601.78;5055160;28;20598;-78
2023/04/04 10:43:02;;;;;;;16.20;6.87;;;;;;;2.22;60.89;100615.53;5052891;28;20049;-78
2023/04/04 10:45:32;;;;;;;10.18;4.32;;;;;;;2.09;59.65;100598.34;5052632;28;20443;-78
2023/04/04 10:47:59;;;;;;;11.85;6.53;;;;;;;1.91;60.56;100580.31;5052755;28;20036;-78
2023/04/04 10:50:25;;;;;;;8.90;5.13;;;;;;;2.06;62.23;100592.34;5052372;28;20032;-78
2023/04/04 10:52:51;;;;;;;10.57;4.50;;;;;;;2.05;61.99;100593.19;5052550;28;20577;-78
2023/04/04 10:55:18;;;;;;;9.35;4.85;;;;;;;1.94;61.39;100596.59;5053005;28;20041;-78
2023/04/04 10:57:51;;;;;;;7.25;4.85;;;;;;;2.08;62.16;100595.78;5052328;28;20115;-79
2023/04/04 11:00:18;;;;;;;11.23;6.05;;;;;;;2.28;62.42;100594.13;5051934;28;20044;-80
2023/04/04 11:02:56;;;;;;;18.73;8.40;;;;;;;2.36;61.52;100596.69;5035725;28;20388;-78
2023/04/04 11:05:23;;;;;;;11.95;6.82;;;;;;;2.22;61.71;100604.38;5039434;28;20049;-79
2023/04/04 11:07:58;;;;;;;14.00;4.75;;;;;;;1.90;61.58;100574.31;5032166;28;20397;-78
2023/04/04 11:10:28;;;;;;;14.57;5.43;;;;;;;1.99;62.48;100596.63;5031703;28;20037;-79
2023/04/04 11:12:55;;;;;;;10.95;4.28;;;;;;;2.06;62.22;100598.34;5031699;28;20040;-78
2023/04/04 11:15:22;;;;;;;6.88;4.20;;;;;;;2.17;63.43;100588.94;5031700;28;20443;-79
2023/04/04 11:17:47;;;;;;;9.38;4.93;;;;;;;2.32;62.02;100590.72;5032778;28;20048;-79